createdAt,value
2023-07-02T00:01:43.255Z,6.97
2023-07-02T00:03:46.129Z,7.38
2023-07-02T00:05:51.002Z,7.03
2023-07-02T00:07:55.330Z,8.65
2023-07-02T00:09:58.255Z,7.82
2023-07-02T00:12:01.072Z,9.65
2023-07-02T00:14:03.985Z,7.30
2023-07-02T00:16:07.449Z,5.45
2023-07-02T00:18:10.238Z,10.23
2023-07-02T00:20:16.700Z,6.75
2023-07-02T00:22:19.837Z,5.43
2023-07-02T00:24:23.965Z,8.68
2023-07-02T00:26:27.030Z,4.65
2023-07-02T00:28:29.780Z,4.38
2023-07-02T00:30:32.777Z,4.20
2023-07-02T00:32:38.020Z,7.47
2023-07-02T00:34:41.245Z,7.05
2023-07-02T00:36:44.158Z,7.53
2023-07-02T00:38:51.048Z,4.93
2023-07-02T00:40:55.248Z,7.18
2023-07-02T00:42:58.604Z,6.80
2023-07-02T00:45:03.951Z,7.18
2023-07-02T00:47:07.769Z,5.97
2023-07-02T00:49:11.561Z,7.10
2023-07-02T00:51:17.064Z,12.80
2023-07-02T00:53:21.058Z,6.80
2023-07-02T00:55:23.876Z,6.32
2023-07-02T00:57:31.418Z,5.75
2023-07-02T00:59:36.655Z,9.80
2023-07-02T01:01:39.605Z,4.60
2023-07-02T01:03:54.843Z,6.43
2023-07-02T01:05:58.057Z,10.05
2023-07-02T01:08:01.274Z,7.57
2023-07-02T01:10:04.448Z,4.47
2023-07-02T01:12:10.552Z,6.40
2023-07-02T01:14:18.522Z,8.50
2023-07-02T01:16:22.997Z,10.05
2023-07-02T01:18:26.201Z,6.32
2023-07-02T01:20:31.625Z,5.97
2023-07-02T01:22:35.860Z,9.45
2023-07-02T01:24:38.997Z,9.30
2023-07-02T01:26:42.063Z,6.25
2023-07-02T01:28:44.878Z,9.80
2023-07-02T01:30:48.005Z,7.78
2023-07-02T01:32:51.067Z,6.07
2023-07-02T01:34:54.689Z,6.55
2023-07-02T01:36:59.182Z,5.43
2023-07-02T01:39:02.009Z,5.60
2023-07-02T01:41:04.939Z,5.32
2023-07-02T01:43:07.734Z,11.50
2023-07-02T01:45:11.367Z,11.00
2023-07-02T01:47:15.037Z,5.53
2023-07-02T01:49:18.419Z,7.93
2023-07-02T01:51:21.203Z,7.53
2023-07-02T01:53:25.395Z,6.82
2023-07-02T01:55:28.221Z,7.43
2023-07-02T01:57:31.843Z,11.60
2023-07-02T01:59:36.058Z,10.38
2023-07-02T02:01:41.768Z,9.27
2023-07-02T02:03:45.042Z,9.93
2023-07-02T02:05:48.197Z,6.45
2023-07-02T02:07:51.225Z,6.72
2023-07-02T02:09:58.425Z,9.23
2023-07-02T02:12:01.369Z,6.97
2023-07-02T02:14:05.785Z,7.72
2023-07-02T02:16:08.712Z,6.68
2023-07-02T02:18:14.236Z,4.47
2023-07-02T02:20:17.101Z,7.57
2023-07-02T02:22:19.897Z,5.43
2023-07-02T02:24:22.872Z,6.97
2023-07-02T02:26:27.187Z,5.55
2023-07-02T02:28:29.983Z,7.07
2023-07-02T02:30:32.854Z,4.80
2023-07-02T02:32:35.900Z,5.15
2023-07-02T02:34:38.753Z,4.43
2023-07-02T02:36:41.645Z,9.57
2023-07-02T02:38:44.543Z,4.10
2023-07-02T02:40:47.724Z,5.78
2023-07-02T02:42:52.113Z,7.53
2023-07-02T02:44:54.932Z,5.38
2023-07-02T02:46:57.897Z,4.43
2023-07-02T02:49:00.810Z,4.78
2023-07-02T02:51:03.708Z,6.35
2023-07-02T02:53:06.544Z,5.13
2023-07-02T02:55:11.611Z,6.93
2023-07-02T02:57:14.367Z,6.03
2023-07-02T02:59:18.842Z,6.50
2023-07-02T03:01:21.663Z,7.47
2023-07-02T03:03:25.779Z,4.05
2023-07-02T03:05:28.887Z,4.93
2023-07-02T03:07:32.250Z,6.45
2023-07-02T03:09:35.114Z,8.52
2023-07-02T03:11:38.149Z,5.40
2023-07-02T03:13:43.836Z,8.63
2023-07-02T03:15:48.009Z,6.05
2023-07-02T03:17:50.839Z,4.35
2023-07-02T03:19:54.018Z,5.40
2023-07-02T03:21:56.904Z,3.72
2023-07-02T03:23:59.886Z,4.63
2023-07-02T03:26:02.746Z,7.05
2023-07-02T03:28:07.226Z,5.72
2023-07-02T03:30:10.582Z,3.90
2023-07-02T03:32:14.740Z,6.05
2023-07-02T03:34:17.635Z,5.25
2023-07-02T03:36:20.525Z,4.25
2023-07-02T03:38:23.466Z,3.55
2023-07-02T03:40:26.367Z,5.82
2023-07-02T03:42:29.460Z,3.72
2023-07-02T03:44:32.581Z,7.35
2023-07-02T03:46:35.624Z,3.70
2023-07-02T03:48:39.780Z,5.47
2023-07-02T03:50:42.613Z,8.75
2023-07-02T03:52:45.447Z,5.80
2023-07-02T03:54:48.273Z,4.95
2023-07-02T03:56:51.227Z,6.55
2023-07-02T03:58:54.133Z,4.75
2023-07-02T04:00:57.157Z,6.55
2023-07-02T04:03:00.510Z,5.30
2023-07-02T04:05:05.331Z,7.15
2023-07-02T04:07:08.319Z,6.57
2023-07-02T04:09:11.176Z,5.63
2023-07-02T04:11:14.891Z,8.80
2023-07-02T04:13:17.827Z,8.13
2023-07-02T04:15:20.667Z,5.38
2023-07-02T04:17:23.478Z,8.30
2023-07-02T04:19:26.358Z,8.80
2023-07-02T04:21:31.468Z,9.07
2023-07-02T04:23:34.274Z,9.40
2023-07-02T04:25:52.329Z,7.57
2023-07-02T04:28:00.459Z,7.35
2023-07-02T04:30:03.435Z,8.45
2023-07-02T04:32:07.087Z,7.03
2023-07-02T04:34:09.962Z,6.80
2023-07-02T04:36:13.368Z,7.57
2023-07-02T04:38:18.348Z,8.50
2023-07-02T04:40:21.175Z,6.90
2023-07-02T04:42:28.546Z,8.80
2023-07-02T04:44:31.594Z,10.60
2023-07-02T04:46:34.967Z,9.23
2023-07-02T04:48:37.862Z,9.98
2023-07-02T04:50:40.647Z,12.00
2023-07-02T04:52:43.506Z,9.82
2023-07-02T04:54:47.872Z,8.48
2023-07-02T04:56:51.560Z,11.52
2023-07-02T04:58:54.670Z,7.90
2023-07-02T05:00:57.557Z,8.23
2023-07-02T05:03:00.661Z,16.83
2023-07-02T05:05:03.744Z,9.77
2023-07-02T05:07:06.832Z,11.35
2023-07-02T05:09:09.882Z,9.35
2023-07-02T05:11:14.069Z,11.35
2023-07-02T05:13:16.841Z,7.93
2023-07-02T05:15:19.891Z,9.32
2023-07-02T05:17:22.750Z,8.75
2023-07-02T05:19:25.606Z,13.52
2023-07-02T05:21:28.390Z,9.68
2023-07-02T05:23:31.225Z,10.43
2023-07-02T05:25:34.756Z,9.15
2023-07-02T05:27:38.923Z,9.93
2023-07-02T05:29:41.791Z,13.10
2023-07-02T05:31:44.751Z,9.50
2023-07-02T05:33:47.760Z,13.65
2023-07-02T05:35:50.874Z,10.98
2023-07-02T05:37:53.700Z,9.70
2023-07-02T05:39:56.619Z,10.15
2023-07-02T05:41:59.459Z,11.68
2023-07-02T05:44:03.654Z,11.13
2023-07-02T05:46:06.537Z,10.40
2023-07-02T05:48:09.464Z,9.85
2023-07-02T05:50:12.357Z,12.63
2023-07-02T05:52:15.201Z,10.68
2023-07-02T05:54:18.078Z,9.82
2023-07-02T05:56:21.246Z,13.07
2023-07-02T05:58:35.125Z,10.85
2023-07-02T06:00:52.319Z,10.82
2023-07-02T06:02:55.284Z,12.25
2023-07-02T06:04:58.581Z,12.27
2023-07-02T06:07:01.480Z,14.52
2023-07-02T06:09:04.950Z,10.65
2023-07-02T06:11:07.729Z,14.13
2023-07-02T06:13:10.693Z,11.63
2023-07-02T06:15:13.797Z,12.38
2023-07-02T06:17:18.022Z,22.33
2023-07-02T06:19:21.266Z,12.60
2023-07-02T06:21:24.375Z,13.40
2023-07-02T06:23:27.622Z,12.95
2023-07-02T06:25:30.429Z,12.00
2023-07-02T06:27:33.228Z,14.43
2023-07-02T06:29:36.062Z,13.93
2023-07-02T06:31:39.206Z,14.43
2023-07-02T06:33:43.506Z,14.25
2023-07-02T06:35:46.368Z,12.68
2023-07-02T06:37:49.327Z,13.15
2023-07-02T06:39:52.228Z,11.20
2023-07-02T06:41:55.120Z,13.70
2023-07-02T06:43:57.953Z,14.77
2023-07-02T06:46:00.813Z,13.65
2023-07-02T06:48:03.805Z,17.10
2023-07-02T06:50:08.606Z,14.57
2023-07-02T06:52:11.436Z,14.55
2023-07-02T06:54:14.817Z,12.68
2023-07-02T06:56:17.775Z,12.73
2023-07-02T06:58:20.642Z,11.90
2023-07-02T07:00:23.721Z,12.52
2023-07-02T07:02:27.049Z,12.18
2023-07-02T07:04:30.417Z,14.48
2023-07-02T07:06:34.837Z,13.98
2023-07-02T07:08:41.135Z,16.70
2023-07-02T07:10:46.143Z,14.10
2023-07-02T07:12:49.155Z,14.68
2023-07-02T07:14:51.982Z,14.73
2023-07-02T07:16:56.648Z,14.77
2023-07-02T07:18:59.496Z,17.63
2023-07-02T07:21:02.413Z,16.23
2023-07-02T07:23:07.141Z,15.95
2023-07-02T07:25:10.708Z,12.57
2023-07-02T07:27:13.514Z,17.95
2023-07-02T07:29:16.867Z,16.48
2023-07-02T07:31:19.817Z,15.88
2023-07-02T07:33:22.840Z,15.13
2023-07-02T07:35:25.630Z,15.07
2023-07-02T07:37:28.459Z,13.02
2023-07-02T07:39:32.626Z,15.45
2023-07-02T07:41:35.353Z,15.77
2023-07-02T07:43:38.431Z,14.95
2023-07-02T07:45:41.281Z,15.95
2023-07-02T07:47:44.488Z,20.92
2023-07-02T07:49:47.391Z,14.55
2023-07-02T07:51:50.950Z,15.15
2023-07-02T07:53:53.728Z,17.70
2023-07-02T07:55:57.903Z,16.75
2023-07-02T07:58:00.862Z,18.48
2023-07-02T08:00:05.233Z,14.93
2023-07-02T08:02:08.532Z,14.40
2023-07-02T08:04:11.667Z,17.95
2023-07-02T08:06:14.778Z,16.15
2023-07-02T08:08:17.663Z,17.58
2023-07-02T08:10:20.575Z,14.80
2023-07-02T08:12:24.821Z,16.30
2023-07-02T08:14:27.634Z,14.70
2023-07-02T08:16:30.501Z,16.83
2023-07-02T08:18:33.286Z,17.75
2023-07-02T08:20:36.363Z,15.80
2023-07-02T08:22:40.152Z,17.75
2023-07-02T08:24:44.185Z,18.85
2023-07-02T08:26:48.836Z,14.75
2023-07-02T08:28:53.032Z,13.88
2023-07-02T08:30:56.091Z,15.00
2023-07-02T08:32:58.975Z,16.30
2023-07-02T08:35:02.027Z,14.00
2023-07-02T08:37:05.357Z,17.58
2023-07-02T08:39:08.223Z,12.80
2023-07-02T08:41:11.154Z,16.70
2023-07-02T08:43:14.126Z,13.13
2023-07-02T08:45:18.595Z,15.20
2023-07-02T08:47:21.890Z,15.50
2023-07-02T08:49:24.930Z,13.90
2023-07-02T08:51:27.684Z,14.60
2023-07-02T08:53:34.810Z,13.50
2023-07-02T08:55:37.708Z,12.77
2023-07-02T08:57:40.678Z,15.18
2023-07-02T08:59:43.610Z,12.50
2023-07-02T09:01:51.902Z,13.23
2023-07-02T09:04:00.223Z,14.38
2023-07-02T09:06:03.097Z,14.98
2023-07-02T09:08:08.254Z,16.88
2023-07-02T09:10:11.424Z,14.05
2023-07-02T09:12:24.668Z,15.25
2023-07-02T09:14:28.950Z,16.63
2023-07-02T09:16:34.163Z,14.50
2023-07-02T09:18:38.428Z,14.90
2023-07-02T09:20:41.203Z,13.40
2023-07-02T09:22:44.005Z,14.57
2023-07-02T09:24:54.096Z,11.73
2023-07-02T09:26:58.292Z,13.45
2023-07-02T09:29:03.893Z,12.02
2023-07-02T09:31:07.237Z,12.70
2023-07-02T09:33:10.285Z,13.60
2023-07-02T09:35:15.079Z,10.88
2023-07-02T09:37:18.130Z,12.90
2023-07-02T09:39:22.944Z,13.23
2023-07-02T09:41:25.892Z,15.80
2023-07-02T09:43:29.024Z,16.15
2023-07-02T09:45:32.270Z,14.60
2023-07-02T09:47:39.053Z,13.43
2023-07-02T09:49:49.278Z,13.55
2023-07-02T09:51:53.692Z,12.75
2023-07-02T09:53:56.734Z,12.63
2023-07-02T09:55:59.973Z,11.00
2023-07-02T09:58:02.919Z,12.02
2023-07-02T10:00:08.498Z,12.13
2023-07-02T10:02:11.799Z,11.18
2023-07-02T10:04:16.192Z,10.95
2023-07-02T10:06:19.117Z,10.18
2023-07-02T10:08:28.056Z,10.60
2023-07-02T10:10:32.135Z,9.13
2023-07-02T10:12:35.108Z,9.30
2023-07-02T10:14:44.315Z,10.70
2023-07-02T10:16:54.314Z,8.38
2023-07-02T10:18:57.340Z,11.52
2023-07-02T10:21:00.678Z,9.75
2023-07-02T10:23:04.425Z,9.55
2023-07-02T10:25:09.669Z,9.80
2023-07-02T10:27:12.481Z,10.18
2023-07-02T10:29:20.954Z,10.57
2023-07-02T10:31:23.815Z,10.95
2023-07-02T10:33:26.659Z,10.68
2023-07-02T10:35:35.293Z,11.80
2023-07-02T10:37:39.061Z,10.60
2023-07-02T10:39:42.022Z,12.93
2023-07-02T10:41:46.123Z,12.52
2023-07-02T10:43:48.911Z,11.48
2023-07-02T10:45:51.918Z,11.60
2023-07-02T10:47:54.933Z,15.88
2023-07-02T10:49:57.789Z,12.90
2023-07-02T10:52:01.387Z,10.65
2023-07-02T10:54:06.040Z,14.32
2023-07-02T10:56:08.841Z,14.02
2023-07-02T10:58:15.951Z,13.05
2023-07-02T11:00:19.599Z,16.08
2023-07-02T11:02:22.648Z,15.13
2023-07-02T11:04:25.626Z,12.63
2023-07-02T11:06:29.317Z,12.25
2023-07-02T11:08:38.434Z,15.10
2023-07-02T11:10:41.424Z,14.25
2023-07-02T11:12:44.271Z,11.02
2023-07-02T11:14:48.413Z,11.90
2023-07-02T11:16:56.610Z,12.98
2023-07-02T11:19:09.650Z,13.43
2023-07-02T11:21:12.771Z,12.25
2023-07-02T11:23:23.040Z,14.60
2023-07-02T11:25:25.935Z,11.60
2023-07-02T11:27:28.689Z,12.18
2023-07-02T11:29:32.348Z,11.48
2023-07-02T11:31:36.491Z,13.27
2023-07-02T11:33:40.509Z,11.88
2023-07-02T11:35:44.313Z,10.65
2023-07-02T11:37:49.551Z,11.32
2023-07-02T11:39:52.497Z,10.25
2023-07-02T11:41:56.102Z,9.52
2023-07-02T11:43:58.959Z,9.23
2023-07-02T11:46:01.943Z,9.75
2023-07-02T11:48:06.183Z,8.90
2023-07-02T11:50:24.723Z,9.70
2023-07-02T11:52:28.858Z,11.30
2023-07-02T11:54:32.218Z,9.25
2023-07-02T11:56:35.378Z,9.02
2023-07-02T11:58:38.150Z,10.73
2023-07-02T12:00:40.952Z,9.50
2023-07-02T12:02:43.861Z,9.88
2023-07-02T12:04:48.148Z,10.65
2023-07-02T12:06:51.098Z,10.50
2023-07-02T12:08:53.940Z,11.00
2023-07-02T12:10:56.753Z,9.82
2023-07-02T12:12:59.602Z,10.07
2023-07-02T12:15:02.470Z,10.68
2023-07-02T12:17:06.363Z,12.52
2023-07-02T12:19:09.261Z,11.55
2023-07-02T12:21:13.413Z,11.25
2023-07-02T12:23:16.413Z,11.85
2023-07-02T12:25:19.544Z,12.38
2023-07-02T12:27:22.314Z,11.55
2023-07-02T12:29:25.089Z,10.15
2023-07-02T12:31:28.026Z,9.93
2023-07-02T12:33:31.936Z,13.80
2023-07-02T12:35:35.200Z,11.00
2023-07-02T12:37:45.265Z,9.73
2023-07-02T12:39:48.119Z,16.60
2023-07-02T12:41:51.211Z,9.82
2023-07-02T12:43:54.020Z,12.07
2023-07-02T12:45:56.960Z,12.63
2023-07-02T12:48:00.212Z,9.70
2023-07-02T12:50:03.233Z,12.57
2023-07-02T12:52:06.402Z,13.00
2023-07-02T12:54:10.530Z,12.43
2023-07-02T12:56:13.388Z,10.32
2023-07-02T12:58:16.340Z,11.15
2023-07-02T13:00:19.696Z,11.30
2023-07-02T13:02:23.250Z,11.25
2023-07-02T13:04:26.089Z,11.60
2023-07-02T13:06:29.227Z,9.35
2023-07-02T13:08:32.018Z,9.95
2023-07-02T13:10:37.135Z,11.20
2023-07-02T13:12:40.108Z,12.00
2023-07-02T13:14:42.997Z,10.82
2023-07-02T13:16:45.913Z,11.48
2023-07-02T13:18:48.740Z,12.70
2023-07-02T13:20:51.535Z,11.13
2023-07-02T13:22:54.404Z,11.98
2023-07-02T13:24:57.177Z,11.13
2023-07-02T13:27:01.526Z,10.98
2023-07-02T13:29:04.290Z,11.85
2023-07-02T13:31:08.688Z,11.30
2023-07-02T13:33:11.614Z,10.45
2023-07-02T13:35:14.483Z,12.52
2023-07-02T13:37:19.076Z,10.30
2023-07-02T13:39:21.958Z,10.93
2023-07-02T13:41:24.829Z,10.60
2023-07-02T13:43:29.319Z,14.20
2023-07-02T13:45:32.218Z,10.00
2023-07-02T13:47:35.124Z,11.52
2023-07-02T13:49:38.075Z,11.15
2023-07-02T13:51:41.002Z,11.43
2023-07-02T13:53:43.976Z,11.30
2023-07-02T13:55:47.772Z,10.55
2023-07-02T13:57:50.941Z,10.95
2023-07-02T13:59:56.073Z,11.38
2023-07-02T14:01:58.997Z,14.00
2023-07-02T14:04:02.533Z,12.50
2023-07-02T14:06:05.450Z,11.70
2023-07-02T14:08:08.285Z,14.80
2023-07-02T14:10:13.257Z,11.73
2023-07-02T14:12:16.179Z,13.00
2023-07-02T14:14:18.963Z,9.80
2023-07-02T14:16:25.132Z,12.73
2023-07-02T14:18:28.055Z,15.00
2023-07-02T14:20:30.830Z,12.45
2023-07-02T14:22:33.817Z,14.98
2023-07-02T14:24:37.380Z,11.40
2023-07-02T14:26:40.956Z,15.75
2023-07-02T14:28:43.928Z,13.48
2023-07-02T14:30:47.791Z,13.10
2023-07-02T14:32:52.025Z,11.80
2023-07-02T14:34:55.089Z,12.63
2023-07-02T14:36:58.808Z,13.73
2023-07-02T14:39:01.980Z,12.85
2023-07-02T14:41:05.001Z,11.82
2023-07-02T14:43:08.189Z,12.57
2023-07-02T14:45:12.488Z,13.75
2023-07-02T14:47:15.609Z,11.90
2023-07-02T14:49:19.957Z,15.43
2023-07-02T14:51:23.053Z,12.05
2023-07-02T14:53:27.493Z,14.93
2023-07-02T14:55:30.561Z,14.70
2023-07-02T14:57:36.172Z,13.95
2023-07-02T14:59:39.125Z,13.75
2023-07-02T15:01:42.106Z,14.55
2023-07-02T15:03:45.095Z,13.45
2023-07-02T15:05:50.166Z,12.25
2023-07-02T15:07:53.542Z,14.10
2023-07-02T15:09:59.160Z,16.48
2023-07-02T15:12:01.993Z,15.10
2023-07-02T15:14:04.838Z,17.02
2023-07-02T15:16:07.826Z,14.38
2023-07-02T15:18:10.676Z,13.38
2023-07-02T15:20:14.267Z,16.90
2023-07-02T15:22:18.608Z,18.27
2023-07-02T15:24:21.414Z,15.00
2023-07-02T15:26:24.355Z,14.88
2023-07-02T15:28:29.341Z,13.88
2023-07-02T15:30:32.578Z,16.77
2023-07-02T15:32:36.048Z,13.75
2023-07-02T15:34:39.223Z,13.95
2023-07-02T15:36:42.109Z,13.85
2023-07-02T15:38:46.263Z,14.80
2023-07-02T15:40:50.944Z,13.40
2023-07-02T15:42:54.132Z,14.55
2023-07-02T15:44:57.304Z,13.10
2023-07-02T15:47:01.908Z,14.48
2023-07-02T15:49:04.767Z,13.20
2023-07-02T15:51:09.401Z,14.32
2023-07-02T15:53:12.189Z,16.10
2023-07-02T15:55:16.454Z,14.85
2023-07-02T15:57:20.363Z,15.75
2023-07-02T15:59:24.723Z,13.70
2023-07-02T16:01:28.204Z,14.50
2023-07-02T16:03:31.540Z,16.35
2023-07-02T16:05:39.294Z,12.73
2023-07-02T16:07:42.337Z,14.38
2023-07-02T16:09:45.526Z,12.95
2023-07-02T16:11:49.771Z,17.15
2023-07-02T16:13:53.206Z,14.35
2023-07-02T16:15:56.024Z,14.88
2023-07-02T16:17:58.929Z,14.80
2023-07-02T16:20:01.802Z,15.68
2023-07-02T16:22:06.347Z,15.57
2023-07-02T16:24:18.814Z,16.63
2023-07-02T16:26:21.720Z,15.18
2023-07-02T16:28:26.296Z,15.50
2023-07-02T16:30:29.051Z,13.43
2023-07-02T16:32:32.720Z,15.52
2023-07-02T16:34:35.582Z,14.73
2023-07-02T16:36:38.463Z,15.38
2023-07-02T16:38:41.269Z,15.40
2023-07-02T16:40:47.202Z,15.20
2023-07-02T16:42:49.967Z,16.02
2023-07-02T16:44:54.169Z,14.93
2023-07-02T16:46:58.246Z,15.10
2023-07-02T16:49:01.796Z,16.38
2023-07-02T16:51:07.037Z,15.57
2023-07-02T16:53:09.915Z,14.18
2023-07-02T16:55:13.161Z,17.38
2023-07-02T16:57:16.006Z,15.98
2023-07-02T16:59:20.636Z,13.80
2023-07-02T17:01:24.915Z,17.15
2023-07-02T17:03:28.342Z,17.48
2023-07-02T17:05:33.263Z,14.43
2023-07-02T17:07:36.137Z,18.35
2023-07-02T17:09:41.449Z,16.58
2023-07-02T17:11:44.418Z,14.63
2023-07-02T17:13:47.217Z,13.93
2023-07-02T17:15:50.491Z,16.20
2023-07-02T17:17:55.351Z,19.92
2023-07-02T17:20:00.356Z,12.68
2023-07-02T17:22:05.822Z,14.52
2023-07-02T17:24:09.020Z,15.15
2023-07-02T17:26:11.906Z,16.75
2023-07-02T17:28:14.735Z,16.20
2023-07-02T17:30:17.664Z,13.23
2023-07-02T17:32:20.856Z,16.98
2023-07-02T17:34:27.340Z,15.10
2023-07-02T17:36:30.188Z,17.73
2023-07-02T17:38:32.974Z,15.02
2023-07-02T17:40:41.025Z,15.95
2023-07-02T17:42:43.826Z,16.15
2023-07-02T17:44:48.442Z,15.73
2023-07-02T17:46:51.633Z,18.15
2023-07-02T17:48:54.442Z,15.85
2023-07-02T17:50:59.858Z,16.38
2023-07-02T17:53:02.671Z,13.55
2023-07-02T17:55:08.433Z,14.95
2023-07-02T17:57:12.842Z,15.48
2023-07-02T17:59:16.123Z,15.70
2023-07-02T18:01:19.774Z,18.17
2023-07-02T18:03:22.924Z,15.02
2023-07-02T18:05:26.187Z,17.13
2023-07-02T18:07:30.423Z,14.88
2023-07-02T18:09:33.208Z,17.35
2023-07-02T18:11:38.031Z,16.73
2023-07-02T18:13:40.786Z,17.08
2023-07-02T18:15:43.545Z,15.65
2023-07-02T18:17:46.652Z,15.40
2023-07-02T18:19:50.014Z,16.25
2023-07-02T18:21:52.981Z,15.82
2023-07-02T18:23:59.114Z,18.17
2023-07-02T18:26:04.458Z,16.08
2023-07-02T18:28:08.840Z,16.58
2023-07-02T18:30:13.716Z,15.60
2023-07-02T18:32:16.784Z,17.90
2023-07-02T18:34:19.708Z,18.17
2023-07-02T18:36:27.507Z,15.63
2023-07-02T18:38:31.064Z,17.63
2023-07-02T18:40:36.181Z,18.20
2023-07-02T18:42:38.949Z,16.63
2023-07-02T18:44:43.528Z,15.60
2023-07-02T18:46:46.533Z,14.80
2023-07-02T18:48:49.406Z,15.73
2023-07-02T18:50:55.998Z,14.32
2023-07-02T18:52:58.822Z,21.77
2023-07-02T18:55:01.804Z,17.02
2023-07-02T18:57:07.892Z,15.18
2023-07-02T18:59:10.810Z,17.23
2023-07-02T19:01:31.616Z,20.27
2023-07-02T19:03:37.003Z,19.10
2023-07-02T19:05:40.260Z,15.73
2023-07-02T19:07:43.064Z,16.42
2023-07-02T19:09:45.994Z,14.77
2023-07-02T19:11:49.042Z,18.75
2023-07-02T19:13:53.552Z,14.75
2023-07-02T19:15:56.595Z,17.20
2023-07-02T19:17:59.545Z,18.08
2023-07-02T19:20:02.859Z,17.83
2023-07-02T19:22:06.124Z,15.98
2023-07-02T19:24:09.034Z,17.92
2023-07-02T19:26:12.004Z,21.50
2023-07-02T19:28:15.403Z,14.85
2023-07-02T19:30:19.797Z,19.60
2023-07-02T19:32:22.686Z,18.23
2023-07-02T19:34:26.224Z,17.33
2023-07-02T19:36:29.057Z,20.92
2023-07-02T19:38:32.357Z,21.63
2023-07-02T19:40:35.149Z,22.50
2023-07-02T19:42:37.955Z,16.42
2023-07-02T19:44:40.745Z,17.52
2023-07-02T19:46:45.982Z,16.40
2023-07-02T19:48:48.799Z,17.10
2023-07-02T19:50:59.632Z,17.92
2023-07-02T19:53:02.442Z,16.35
2023-07-02T19:55:07.979Z,17.50
2023-07-02T19:57:14.266Z,13.90
2023-07-02T19:59:17.219Z,16.92
2023-07-02T20:01:21.399Z,16.15
2023-07-02T20:03:27.244Z,15.75
2023-07-02T20:05:30.610Z,17.02
2023-07-02T20:07:33.801Z,18.08
2023-07-02T20:09:37.873Z,14.98
2023-07-02T20:11:40.813Z,19.50
2023-07-02T20:13:43.691Z,16.85
2023-07-02T20:15:46.779Z,16.05
2023-07-02T20:17:49.747Z,16.13
2023-07-02T20:19:54.061Z,18.38
2023-07-02T20:21:56.999Z,19.00
2023-07-02T20:24:02.068Z,18.10
2023-07-02T20:26:06.701Z,17.02
2023-07-02T20:28:09.831Z,16.58
2023-07-02T20:30:13.312Z,15.70
2023-07-02T20:32:16.657Z,15.38
2023-07-02T20:34:21.454Z,15.85
2023-07-02T20:36:25.569Z,16.80
2023-07-02T20:38:28.398Z,18.95
2023-07-02T20:40:32.446Z,19.92
2023-07-02T20:42:35.278Z,19.75
2023-07-02T20:44:39.677Z,14.15
2023-07-02T20:46:47.472Z,17.92
2023-07-02T20:48:50.316Z,18.30
2023-07-02T20:50:56.619Z,18.25
2023-07-02T20:53:05.847Z,15.75
2023-07-02T20:55:09.956Z,15.50
2023-07-02T20:57:12.928Z,18.65
2023-07-02T20:59:15.871Z,16.90
2023-07-02T21:01:18.701Z,19.77
2023-07-02T21:03:21.666Z,17.38
2023-07-02T21:05:24.706Z,18.55
2023-07-02T21:07:28.120Z,16.95
2023-07-02T21:09:34.971Z,23.35
2023-07-02T21:11:38.572Z,18.25
2023-07-02T21:13:41.354Z,16.05
2023-07-02T21:15:44.344Z,20.60
2023-07-02T21:17:50.127Z,18.90
2023-07-02T21:19:53.146Z,18.38
2023-07-02T21:21:55.928Z,15.88
2023-07-02T21:23:58.808Z,16.95
2023-07-02T21:26:04.701Z,14.25
2023-07-02T21:28:07.668Z,16.10
2023-07-02T21:30:12.171Z,15.48
2023-07-02T21:32:15.147Z,15.50
2023-07-02T21:34:18.355Z,15.15
2023-07-02T21:36:21.142Z,19.95
2023-07-02T21:38:25.010Z,16.88
2023-07-02T21:40:28.305Z,18.27
2023-07-02T21:42:32.808Z,16.70
2023-07-02T21:44:38.022Z,20.17
2023-07-02T21:46:40.900Z,17.77
2023-07-02T21:48:43.723Z,18.02
2023-07-02T21:50:46.817Z,20.83
2023-07-02T21:52:52.783Z,16.92
2023-07-02T21:54:55.685Z,22.95
2023-07-02T21:56:58.664Z,15.77
2023-07-02T21:59:03.919Z,18.92
2023-07-02T22:01:07.458Z,20.75
2023-07-02T22:03:10.507Z,17.40
2023-07-02T22:05:14.494Z,14.73
2023-07-02T22:07:17.652Z,13.65
2023-07-02T22:09:20.954Z,18.35
2023-07-02T22:11:25.841Z,17.70
2023-07-02T22:13:29.126Z,20.13
2023-07-02T22:15:33.844Z,19.10
2023-07-02T22:17:36.721Z,17.20
2023-07-02T22:19:39.887Z,17.75
2023-07-02T22:21:46.651Z,16.23
2023-07-02T22:23:50.110Z,16.27
2023-07-02T22:25:53.062Z,23.50
2023-07-02T22:27:59.450Z,18.27
2023-07-02T22:30:05.260Z,18.70
2023-07-02T22:32:10.850Z,15.32
2023-07-02T22:34:13.802Z,17.73
2023-07-02T22:36:16.905Z,14.23
2023-07-02T22:38:19.882Z,17.38
2023-07-02T22:40:24.343Z,15.88
2023-07-02T22:42:27.356Z,16.50
2023-07-02T22:44:30.450Z,17.10
2023-07-02T22:46:36.124Z,17.92
2023-07-02T22:48:40.859Z,16.90
2023-07-02T22:50:43.776Z,19.08
2023-07-02T22:52:47.099Z,17.75
2023-07-02T22:54:53.616Z,16.90
2023-07-02T22:56:57.663Z,16.60
2023-07-02T22:59:00.561Z,15.35
2023-07-02T23:01:03.542Z,18.17
2023-07-02T23:03:06.899Z,16.73
2023-07-02T23:05:13.224Z,18.63
2023-07-02T23:07:16.313Z,17.17
2023-07-02T23:09:20.073Z,18.33
2023-07-02T23:11:22.980Z,14.63
2023-07-02T23:13:26.538Z,16.10
2023-07-02T23:15:29.528Z,17.90
2023-07-02T23:17:32.468Z,17.52
2023-07-02T23:19:35.682Z,15.32
2023-07-02T23:21:43.742Z,16.25
2023-07-02T23:23:46.834Z,15.02
2023-07-02T23:25:50.174Z,13.82
2023-07-02T23:28:03.770Z,16.83
2023-07-02T23:30:10.360Z,14.35
2023-07-02T23:32:26.227Z,17.65
2023-07-02T23:34:30.592Z,15.70
2023-07-02T23:36:33.653Z,19.50
2023-07-02T23:38:38.374Z,13.05
2023-07-02T23:40:41.322Z,16.67
2023-07-02T23:42:44.778Z,22.33
2023-07-02T23:44:47.594Z,18.95
2023-07-02T23:46:50.403Z,16.38
2023-07-02T23:48:53.245Z,16.27
2023-07-02T23:51:00.089Z,15.75
2023-07-02T23:53:02.928Z,17.52
2023-07-02T23:55:09.604Z,16.35
2023-07-02T23:57:12.390Z,16.25
2023-07-02T23:59:15.199Z,19.15
